Time;durP1;ratioP1;P1;durP2;ratioP2;P2;SDS_P1;SDS_P2;PMS_P1;PMS_P2;Temp;Humidity;BMP_temperature;BMP_pressure;BME280_temperature;BME280_humidity;BME280_pressure;Samples;Min_cycle;Max_cycle;Signal;HPM_P1;HPM_P2
2023/05/08 00:00:57;;;;;;;17.63;13.30;;;22.10;46.50;;;;;;4954449;29;20451;-79
2023/05/08 00:03:26;;;;;;;20.40;13.80;;;22.10;46.50;;;;;;4954115;29;20467;-78
2023/05/08 00:05:55;;;;;;;20.73;14.50;;;22.10;46.60;;;;;;4954177;28;20427;-78
2023/05/08 00:08:23;;;;;;;24.00;15.27;;;22.10;46.60;;;;;;4954574;28;20452;-79
2023/05/08 00:10:52;;;;;;;23.83;17.07;;;22.10;46.60;;;;;;4954244;29;20438;-78
2023/05/08 00:13:20;;;;;;;22.43;16.10;;;22.10;46.70;;;;;;4953152;28;20591;-78
2023/05/08 00:15:49;;;;;;;24.00;17.63;;;22.00;46.60;;;;;;4949410;29;20472;-78
2023/05/08 00:18:17;;;;;;;20.60;15.60;;;22.00;46.70;;;;;;4955143;28;20454;-78
2023/05/08 00:20:44;;;;;;;21.30;15.73;;;22.00;46.80;;;;;;4959364;29;20446;-78
2023/05/08 00:23:13;;;;;;;23.07;16.40;;;22.00;46.80;;;;;;4957409;29;20471;-79
2023/05/08 00:25:41;;;;;;;24.10;17.57;;;22.00;46.80;;;;;;4957564;29;20450;-79
2023/05/08 00:28:11;;;;;;;25.40;17.33;;;21.90;46.70;;;;;;4958401;29;20453;-78
2023/05/08 00:30:39;;;;;;;24.43;17.53;;;21.90;46.70;;;;;;4956263;28;20451;-79
2023/05/08 00:33:07;;;;;;;23.57;16.97;;;21.90;46.80;;;;;;4957672;28;20481;-78
2023/05/08 00:35:35;;;;;;;19.67;15.60;;;21.90;46.80;;;;;;4957469;29;20451;-79
2023/05/08 00:38:03;;;;;;;22.67;16.47;;;21.90;46.80;;;;;;4958403;29;20457;-79
2023/05/08 00:40:31;;;;;;;20.27;15.30;;;21.90;46.90;;;;;;4952583;29;20443;-79
2023/05/08 00:42:59;;;;;;;22.27;15.70;;;21.80;46.80;;;;;;4960029;29;20467;-80
2023/05/08 00:45:32;;;;;;;19.03;14.70;;;21.80;46.90;;;;;;4959864;28;20447;-79
2023/05/08 00:48:01;;;;;;;21.17;15.67;;;21.80;46.90;;;;;;4960414;28;20454;-80
2023/05/08 00:50:29;;;;;;;22.67;16.60;;;21.80;47.00;;;;;;4959572;29;20482;-81
2023/05/08 00:52:57;;;;;;;20.93;15.10;;;21.80;46.80;;;;;;4958876;29;20450;-78
2023/05/08 00:55:24;;;;;;;20.23;15.07;;;21.70;46.90;;;;;;4959588;29;20443;-80
2023/05/08 00:57:52;;;;;;;17.53;13.93;;;21.70;47.00;;;;;;4958151;29;20431;-78
2023/05/08 01:00:20;;;;;;;19.33;14.97;;;21.70;47.00;;;;;;4962945;28;20438;-78
2023/05/08 01:02:49;;;;;;;22.53;14.40;;;21.70;47.00;;;;;;4956953;28;20455;-78
2023/05/08 01:05:17;;;;;;;17.40;13.73;;;21.70;47.00;;;;;;4964606;28;20446;-79
2023/05/08 01:07:46;;;;;;;19.27;14.30;;;21.60;47.00;;;;;;4956473;28;20527;-79
2023/05/08 01:10:13;;;;;;;16.67;13.07;;;21.60;47.00;;;;;;4958988;29;20490;-80
2023/05/08 01:12:57;;;;;;;18.10;13.20;;;21.60;47.00;;;;;;4958626;29;20478;-79
2023/05/08 01:15:29;;;;;;;16.33;12.37;;;21.60;47.10;;;;;;4956776;29;20539;-78
2023/05/08 01:18:04;;;;;;;17.33;13.17;;;21.60;47.00;;;;;;4956850;29;20446;-79
2023/05/08 01:20:37;;;;;;;16.43;13.10;;;21.60;47.10;;;;;;4949007;28;20446;-77
2023/05/08 01:23:44;;;;;;;17.70;12.83;;;21.50;47.10;;;;;;4969163;28;20471;-80
2023/05/08 01:26:43;;;;;;;15.77;12.33;;;21.50;47.10;;;;;;4956327;29;20457;-79
2023/05/08 01:29:33;;;;;;;15.23;12.47;;;21.40;47.00;;;;;;4946386;28;20474;-79
2023/05/08 01:32:11;;;;;;;14.83;11.70;;;21.40;47.10;;;;;;4956353;29;20477;-79
2023/05/08 01:34:44;;;;;;;14.10;11.07;;;21.40;47.20;;;;;;4949497;29;20479;-78
2023/05/08 01:37:14;;;;;;;14.97;11.07;;;21.40;47.20;;;;;;4955728;28;20459;-79
2023/05/08 01:39:44;;;;;;;14.03;11.10;;;21.40;47.20;;;;;;4957901;28;20457;-79
2023/05/08 01:42:17;;;;;;;16.53;12.10;;;21.40;47.20;;;;;;4958107;29;20471;-79
2023/05/08 01:44:47;;;;;;;13.80;10.90;;;21.40;47.40;;;;;;4958402;28;20451;-79
2023/05/08 01:47:16;;;;;;;13.33;11.07;;;21.30;47.30;;;;;;4958697;28;20451;-79
2023/05/08 01:49:46;;;;;;;12.50;10.20;;;21.30;47.30;;;;;;4958298;29;20451;-79
2023/05/08 01:52:17;;;;;;;14.70;10.60;;;21.30;47.30;;;;;;4958144;29;20541;-80
2023/05/08 01:54:46;;;;;;;14.33;10.60;;;21.30;47.50;;;;;;4955214;28;20479;-79
2023/05/08 01:57:15;;;;;;;19.80;10.60;;;21.30;47.50;;;;;;4958531;28;20831;-78
2023/05/08 01:59:43;;;;;;;13.47;10.80;;;21.30;47.40;;;;;;4958802;29;20462;-80
2023/05/08 02:02:11;;;;;;;11.53;10.10;;;21.20;47.50;;;;;;4958696;28;20467;-79
2023/05/08 02:04:41;;;;;;;11.80;9.63;;;21.20;47.50;;;;;;4958566;29;20851;-79
2023/05/08 02:07:10;;;;;;;11.97;9.73;;;21.20;47.50;;;;;;4958920;29;20447;-80
2023/05/08 02:09:38;;;;;;;14.00;10.03;;;21.20;47.50;;;;;;4957625;29;20455;-80
2023/05/08 02:12:07;;;;;;;12.33;9.40;;;21.20;47.60;;;;;;4957716;28;20482;-80
2023/05/08 02:14:34;;;;;;;11.07;9.57;;;21.20;47.50;;;;;;4958961;28;20489;-80
2023/05/08 02:17:03;;;;;;;10.07;8.90;;;21.20;47.60;;;;;;4958832;29;20450;-79
2023/05/08 02:19:31;;;;;;;12.63;9.80;;;21.10;47.70;;;;;;4957506;29;20481;-80
2023/05/08 02:22:00;;;;;;;12.63;9.80;;;21.10;47.60;;;;;;4960216;29;20463;-79
2023/05/08 02:24:28;;;;;;;11.20;9.10;;;21.10;47.60;;;;;;4963242;28;20431;-79
2023/05/08 02:26:56;;;;;;;11.07;9.40;;;21.10;47.70;;;;;;4957546;29;20432;-78
2023/05/08 02:29:24;;;;;;;11.07;8.83;;;21.10;47.60;;;;;;4957518;29;20450;-78
2023/05/08 02:31:52;;;;;;;9.20;8.20;;;21.10;47.70;;;;;;4956964;29;20478;-78
2023/05/08 02:34:20;;;;;;;9.50;8.50;;;21.10;47.60;;;;;;4955726;29;20467;-78
2023/05/08 02:36:48;;;;;;;11.87;9.50;;;21.10;47.80;;;;;;4955851;29;20443;-78
2023/05/08 02:39:17;;;;;;;10.40;8.87;;;21.10;47.80;;;;;;4956247;29;20443;-78
2023/05/08 02:41:46;;;;;;;10.00;8.87;;;21.00;47.60;;;;;;4954601;28;20447;-78
2023/05/08 02:44:13;;;;;;;10.20;8.67;;;21.00;47.70;;;;;;4955228;29;20431;-78
2023/05/08 02:46:44;;;;;;;10.57;8.70;;;21.00;47.80;;;;;;4955358;29;20447;-79
2023/05/08 02:49:14;;;;;;;8.90;8.00;;;21.00;47.70;;;;;;4955006;29;20447;-79
2023/05/08 02:51:46;;;;;;;8.93;7.83;;;21.00;47.80;;;;;;4955440;29;20446;-79
2023/05/08 02:54:18;;;;;;;13.90;7.90;;;21.00;47.70;;;;;;4956123;29;20561;-79
2023/05/08 02:56:55;;;;;;;10.53;8.43;;;20.90;47.70;;;;;;4957792;28;20435;-77
2023/05/08 02:59:27;;;;;;;9.03;8.13;;;20.90;47.70;;;;;;4956725;29;20443;-79
2023/05/08 03:01:59;;;;;;;8.97;8.07;;;20.90;47.80;;;;;;4954450;28;20487;-79
2023/05/08 03:04:31;;;;;;;8.97;8.07;;;20.90;47.70;;;;;;4954545;29;20447;-78
2023/05/08 03:06:58;;;;;;;8.87;7.43;;;20.90;47.90;;;;;;4954930;29;20435;-77
2023/05/08 03:09:31;;;;;;;8.97;7.70;;;20.90;47.80;;;;;;4954415;28;20447;-78
2023/05/08 03:12:02;;;;;;;8.77;7.27;;;20.90;47.80;;;;;;4954610;29;20479;-79
2023/05/08 03:14:30;;;;;;;8.63;7.40;;;20.80;47.90;;;;;;4954709;29;20494;-79
2023/05/08 03:16:58;;;;;;;10.13;7.87;;;20.80;47.80;;;;;;4954699;29;20439;-80
2023/05/08 03:19:28;;;;;;;8.00;7.20;;;20.80;47.80;;;;;;4953221;29;20470;-79
2023/05/08 03:21:55;;;;;;;7.43;6.73;;;20.70;48.00;;;;;;4955538;28;20489;-79
2023/05/08 03:24:23;;;;;;;7.70;6.83;;;20.70;47.90;;;;;;4954727;29;20446;-79
2023/05/08 03:26:52;;;;;;;7.67;6.97;;;20.70;48.00;;;;;;4957594;29;20439;-79
2023/05/08 03:29:20;;;;;;;14.50;7.40;;;20.70;48.00;;;;;;4956415;29;20451;-80
2023/05/08 03:31:48;;;;;;;8.43;7.60;;;20.70;47.80;;;;;;4956673;29;20459;-79
2023/05/08 03:34:16;;;;;;;8.07;7.27;;;20.70;47.90;;;;;;4956777;29;20549;-79
2023/05/08 03:36:43;;;;;;;8.47;7.57;;;20.70;48.00;;;;;;4950718;29;20470;-80
2023/05/08 03:39:11;;;;;;;8.63;6.67;;;20.70;47.90;;;;;;4955948;29;20652;-79
2023/05/08 03:41:39;;;;;;;8.40;6.67;;;20.60;47.80;;;;;;4949438;29;20453;-79
2023/05/08 03:44:08;;;;;;;8.30;7.37;;;20.60;47.90;;;;;;4956760;29;20435;-79
2023/05/08 03:46:37;;;;;;;7.23;6.47;;;20.60;47.90;;;;;;4956414;28;20451;-79
2023/05/08 03:49:05;;;;;;;10.13;7.30;;;20.60;47.90;;;;;;4958076;29;20546;-79
2023/05/08 03:51:33;;;;;;;7.33;6.63;;;20.60;47.90;;;;;;4956380;28;20447;-78
2023/05/08 03:54:01;;;;;;;7.30;6.60;;;20.60;47.90;;;;;;4958732;28;20443;-79
2023/05/08 03:56:28;;;;;;;7.87;6.93;;;20.60;48.20;;;;;;4962088;29;20455;-78
2023/05/08 03:59:00;;;;;;;7.17;6.47;;;20.50;48.00;;;;;;4958408;28;20443;-78
2023/05/08 04:01:35;;;;;;;7.70;6.97;;;20.60;48.10;;;;;;4959161;29;20455;-77
2023/05/08 04:04:06;;;;;;;9.67;7.20;;;20.50;47.80;;;;;;4958841;28;20464;-78
2023/05/08 04:06:37;;;;;;;7.97;6.87;;;20.50;48.00;;;;;;4960692;28;20979;-77
2023/05/08 04:09:18;;;;;;;7.07;6.07;;;20.50;47.90;;;;;;4960958;28;20442;-78
2023/05/08 04:11:51;;;;;;;6.73;6.00;;;20.50;47.90;;;;;;4957738;29;20470;-78
2023/05/08 04:14:20;;;;;;;6.97;6.37;;;20.50;48.00;;;;;;4957605;29;20485;-78
2023/05/08 04:16:52;;;;;;;7.50;6.80;;;20.50;48.00;;;;;;4958243;29;20443;-78
2023/05/08 04:19:23;;;;;;;7.83;7.10;;;20.40;48.00;;;;;;4958194;29;20447;-79
2023/05/08 04:21:54;;;;;;;7.17;6.47;;;20.40;47.80;;;;;;4958212;28;20562;-79
2023/05/08 04:24:22;;;;;;;7.20;6.50;;;20.40;48.00;;;;;;4956969;29;20453;-79
2023/05/08 04:26:50;;;;;;;7.63;6.83;;;20.40;48.10;;;;;;4958248;28;20442;-79
2023/05/08 04:29:18;;;;;;;6.80;6.20;;;20.40;48.10;;;;;;4957815;29;20446;-78
2023/05/08 04:31:46;;;;;;;7.10;6.40;;;20.40;48.10;;;;;;4957763;29;20467;-79
2023/05/08 04:34:15;;;;;;;7.10;6.47;;;20.40;48.00;;;;;;4957750;29;20498;-79
2023/05/08 04:36:43;;;;;;;6.70;6.10;;;20.40;48.00;;;;;;4950013;29;20451;-78
2023/05/08 04:39:12;;;;;;;6.63;6.03;;;20.40;48.20;;;;;;4957753;29;20450;-78
2023/05/08 04:41:40;;;;;;;7.17;5.80;;;20.40;48.00;;;;;;4957665;28;20575;-78
2023/05/08 04:44:08;;;;;;;7.10;6.40;;;20.40;48.10;;;;;;4957104;29;20443;-79
2023/05/08 04:46:36;;;;;;;6.50;5.80;;;20.30;48.00;;;;;;4957318;28;20474;-78
2023/05/08 04:49:04;;;;;;;6.40;5.80;;;20.30;48.00;;;;;;4957285;29;20446;-78
2023/05/08 04:51:33;;;;;;;7.10;6.27;;;20.30;48.00;;;;;;4957203;29;20447;-79
2023/05/08 04:54:02;;;;;;;6.27;5.67;;;20.30;48.00;;;;;;4960613;28;20443;-79
2023/05/08 04:56:29;;;;;;;6.70;6.10;;;20.40;47.90;;;;;;4959295;29;20454;-78
2023/05/08 04:58:57;;;;;;;6.83;6.13;;;20.30;47.80;;;;;;4957188;29;20454;-78
2023/05/08 05:01:25;;;;;;;7.90;6.27;;;20.40;48.00;;;;;;4960085;28;20447;-78
2023/05/08 05:03:54;;;;;;;6.30;5.70;;;20.40;48.00;;;;;;4964204;28;20880;-77
2023/05/08 05:06:21;;;;;;;6.23;5.63;;;20.40;48.00;;;;;;4957964;28;20518;-77
2023/05/08 05:08:50;;;;;;;6.73;6.13;;;20.40;47.80;;;;;;4957314;28;20444;-79
2023/05/08 05:11:18;;;;;;;5.73;5.23;;;20.40;47.90;;;;;;4956641;29;20435;-78
2023/05/08 05:13:46;;;;;;;6.00;5.50;;;20.30;47.80;;;;;;4948576;29;20458;-79
2023/05/08 05:16:14;;;;;;;6.27;5.70;;;20.30;48.00;;;;;;4956367;29;20435;-78
2023/05/08 05:18:42;;;;;;;6.40;5.80;;;20.40;48.00;;;;;;4956232;29;20455;-78
2023/05/08 05:21:10;;;;;;;7.97;5.40;;;20.40;48.00;;;;;;4963221;28;20457;-78
2023/05/08 05:23:38;;;;;;;6.30;5.80;;;20.40;47.90;;;;;;4954101;28;20470;-78
2023/05/08 05:26:07;;;;;;;6.60;6.07;;;20.30;47.90;;;;;;4958765;28;20482;-79
2023/05/08 05:28:35;;;;;;;5.97;5.47;;;20.30;48.00;;;;;;4959065;28;20447;-77
2023/05/08 05:31:03;;;;;;;7.10;5.97;;;20.40;48.00;;;;;;4956236;28;20443;-76
2023/05/08 05:33:31;;;;;;;6.53;5.90;;;20.40;48.00;;;;;;4956366;28;20459;-78
2023/05/08 05:35:59;;;;;;;6.43;5.83;;;20.40;47.90;;;;;;4957529;29;20440;-79
2023/05/08 05:38:27;;;;;;;6.73;6.00;;;20.30;48.00;;;;;;4955911;29;20439;-77
2023/05/08 05:40:55;;;;;;;6.00;5.50;;;20.40;47.90;;;;;;4949613;29;20442;-79
2023/05/08 05:43:24;;;;;;;6.83;5.60;;;20.40;47.90;;;;;;4955619;29;20828;-78
2023/05/08 05:45:51;;;;;;;5.93;5.33;;;20.40;48.00;;;;;;4955960;29;20471;-78
2023/05/08 05:48:19;;;;;;;5.73;5.00;;;20.40;48.00;;;;;;4958605;28;20458;-77
2023/05/08 05:50:47;;;;;;;5.60;5.10;;;20.40;47.90;;;;;;4958337;29;20459;-80
2023/05/08 05:53:15;;;;;;;5.50;5.00;;;20.40;48.00;;;;;;4958473;29;20463;-79
2023/05/08 05:55:43;;;;;;;5.40;4.90;;;20.40;47.80;;;;;;4958434;29;20454;-78
2023/05/08 05:58:11;;;;;;;6.80;5.53;;;20.50;48.00;;;;;;4955914;28;20451;-76
2023/05/08 06:00:41;;;;;;;6.23;5.70;;;20.50;47.90;;;;;;4955721;29;20439;-77
2023/05/08 06:03:09;;;;;;;6.17;5.57;;;20.50;47.80;;;;;;4955788;28;20467;-77
2023/05/08 06:05:37;;;;;;;5.90;5.40;;;20.50;47.90;;;;;;4955945;29;20525;-78
2023/05/08 06:08:06;;;;;;;5.70;5.20;;;20.50;47.80;;;;;;4955719;29;20446;-78
2023/05/08 06:10:33;;;;;;;5.33;4.83;;;20.50;47.80;;;;;;4956011;29;20446;-78
2023/05/08 06:13:02;;;;;;;5.43;4.93;;;20.50;47.80;;;;;;4955686;29;20466;-77
2023/05/08 06:15:30;;;;;;;5.60;5.10;;;20.50;47.80;;;;;;4956960;28;20490;-78
2023/05/08 06:17:59;;;;;;;5.73;5.27;;;20.60;47.90;;;;;;4957798;29;20451;-77
2023/05/08 06:20:27;;;;;;;5.97;5.47;;;20.50;47.80;;;;;;4957553;29;20452;-79
2023/05/08 06:22:55;;;;;;;5.80;5.30;;;20.60;48.00;;;;;;4955193;28;20479;-77
2023/05/08 06:25:24;;;;;;;5.20;4.80;;;20.60;47.80;;;;;;4952194;29;20475;-78
2023/05/08 06:27:52;;;;;;;5.20;4.80;;;20.70;47.90;;;;;;4955459;28;20458;-78
2023/05/08 06:30:20;;;;;;;6.10;5.30;;;20.70;47.80;;;;;;4955564;29;20443;-78
2023/05/08 06:32:48;;;;;;;5.90;5.30;;;20.70;47.70;;;;;;4946619;29;20467;-79
2023/05/08 06:35:18;;;;;;;5.60;5.20;;;20.70;47.70;;;;;;4955843;29;20439;-78
2023/05/08 06:37:46;;;;;;;7.03;5.23;;;20.80;47.70;;;;;;4955460;28;20451;-78
2023/05/08 06:40:14;;;;;;;5.33;4.93;;;20.80;47.70;;;;;;4955118;29;20454;-78
2023/05/08 06:42:42;;;;;;;6.00;5.50;;;20.90;47.70;;;;;;4957577;29;20459;-79
2023/05/08 06:45:10;;;;;;;5.73;5.23;;;20.90;47.60;;;;;;4957512;29;20446;-78
2023/05/08 06:47:39;;;;;;;5.57;5.00;;;20.90;47.70;;;;;;4956546;28;20529;-77
2023/05/08 06:50:08;;;;;;;5.50;5.10;;;21.00;47.50;;;;;;4953124;29;20462;-77
2023/05/08 06:52:37;;;;;;;5.80;5.17;;;21.00;47.50;;;;;;4953176;28;20479;-78
2023/05/08 06:55:06;;;;;;;5.77;5.27;;;21.20;47.70;;;;;;4955566;29;20449;-78
2023/05/08 06:57:34;;;;;;;5.67;5.17;;;21.20;47.40;;;;;;4950549;28;20447;-78
2023/05/08 07:00:03;;;;;;;5.07;4.67;;;21.20;47.60;;;;;;4956395;28;20455;-78
2023/05/08 07:02:31;;;;;;;5.50;5.00;;;21.30;47.50;;;;;;4944321;29;20467;-77
2023/05/08 07:04:59;;;;;;;5.60;5.20;;;21.40;47.40;;;;;;4955187;28;20450;-79
2023/05/08 07:07:27;;;;;;;5.00;4.67;;;21.40;48.00;;;;;;4956137;28;20470;-79
2023/05/08 07:09:56;;;;;;;5.20;4.80;;;21.50;47.50;;;;;;4956248;28;20470;-78
2023/05/08 07:12:23;;;;;;;5.50;5.10;;;21.60;47.50;;;;;;4949245;29;20479;-79
2023/05/08 07:14:51;;;;;;;5.43;4.93;;;21.60;47.30;;;;;;4950375;28;20454;-79
2023/05/08 07:17:22;;;;;;;5.87;5.37;;;21.70;47.40;;;;;;4956520;29;20538;-78
2023/05/08 07:19:50;;;;;;;4.63;4.30;;;21.80;47.60;;;;;;4960661;28;20866;-79
2023/05/08 07:22:20;;;;;;;7.40;5.10;;;21.80;47.60;;;;;;4961190;28;20478;-79
2023/05/08 07:24:48;;;;;;;6.00;5.50;;;21.90;47.40;;;;;;4956298;28;20482;-79
2023/05/08 07:27:19;;;;;;;4.97;4.53;;;22.00;47.50;;;;;;4955722;29;20481;-80
2023/05/08 07:29:46;;;;;;;5.20;4.80;;;22.10;47.50;;;;;;4956787;28;20529;-79
2023/05/08 07:32:15;;;;;;;5.60;5.20;;;22.20;47.50;;;;;;4956162;28;20466;-79
2023/05/08 07:34:43;;;;;;;4.73;4.43;;;22.30;47.20;;;;;;4956999;28;20447;-79
2023/05/08 07:37:11;;;;;;;5.43;5.03;;;22.40;47.30;;;;;;4956696;28;20510;-80
2023/05/08 07:39:40;;;;;;;4.93;4.63;;;22.50;47.20;;;;;;4958875;28;20478;-81
2023/05/08 07:42:07;;;;;;;5.33;4.93;;;22.60;47.20;;;;;;4956700;28;20474;-77
2023/05/08 07:44:37;;;;;;;5.40;4.90;;;22.70;46.90;;;;;;4954504;29;20447;-79
2023/05/08 07:47:20;;;;;;;5.83;5.33;;;22.80;46.90;;;;;;4949663;29;20482;-78
2023/05/08 07:49:49;;;;;;;5.20;4.70;;;22.90;47.10;;;;;;4954047;29;20518;-78
2023/05/08 07:52:17;;;;;;;6.20;4.87;;;23.00;46.90;;;;;;4952227;28;20470;-77
2023/05/08 07:54:45;;;;;;;4.77;4.47;;;23.20;46.90;;;;;;4951245;28;20461;-77
2023/05/08 07:57:14;;;;;;;5.47;5.10;;;23.40;46.70;;;;;;4952658;28;20861;-76
2023/05/08 07:59:45;;;;;;;5.17;4.80;;;23.50;46.60;;;;;;4952887;28;20436;-76
2023/05/08 08:02:13;;;;;;;5.10;4.80;;;23.60;46.50;;;;;;4952911;29;20450;-77
2023/05/08 08:04:41;;;;;;;5.27;4.90;;;23.70;46.40;;;;;;4952596;28;20455;-77
2023/05/08 08:07:10;;;;;;;5.50;5.00;;;23.80;46.20;;;;;;4951893;28;20474;-77
2023/05/08 08:09:38;;;;;;;5.87;4.73;;;23.90;46.40;;;;;;4952117;28;20458;-75
2023/05/08 08:12:06;;;;;;;4.70;4.40;;;24.00;46.20;;;;;;4951177;28;20471;-77
2023/05/08 08:14:34;;;;;;;5.70;5.20;;;24.10;46.00;;;;;;4951243;29;20457;-77
2023/05/08 08:17:05;;;;;;;5.03;4.63;;;24.30;45.90;;;;;;4951229;29;20467;-77
2023/05/08 08:19:33;;;;;;;4.97;4.67;;;24.40;45.90;;;;;;4951514;28;20482;-77
2023/05/08 08:22:01;;;;;;;5.37;4.87;;;24.40;45.60;;;;;;4951273;28;20565;-77
2023/05/08 08:24:29;;;;;;;4.90;4.60;;;24.50;45.80;;;;;;4952415;28;20483;-77
2023/05/08 08:26:57;;;;;;;5.17;4.67;;;24.60;45.60;;;;;;4944220;29;20478;-77
2023/05/08 08:29:25;;;;;;;4.60;4.20;;;24.70;45.60;;;;;;4952508;29;20447;-77
2023/05/08 08:31:54;;;;;;;5.40;5.00;;;24.80;45.60;;;;;;4952355;29;20553;-75
2023/05/08 08:34:23;;;;;;;4.90;4.60;;;24.90;45.70;;;;;;4952097;28;20526;-77
2023/05/08 08:36:51;;;;;;;4.83;4.50;;;25.10;45.70;;;;;;4952583;28;20458;-77
2023/05/08 08:39:20;;;;;;;4.87;4.57;;;25.20;45.60;;;;;;4953564;28;20443;-77
2023/05/08 08:41:50;;;;;;;5.20;4.70;;;25.40;45.50;;;;;;4955684;29;20469;-79
2023/05/08 08:44:18;;;;;;;4.63;4.37;;;25.60;45.30;;;;;;4954763;28;20952;-75
2023/05/08 08:46:50;;;;;;;4.40;4.20;;;25.90;45.30;;;;;;4956528;28;20940;-76
2023/05/08 08:49:18;;;;;;;4.63;4.33;;;26.00;45.00;;;;;;4955745;29;20483;-77
2023/05/08 08:51:51;;;;;;;4.60;4.27;;;26.30;44.90;;;;;;4954266;28;20811;-76
2023/05/08 08:54:21;;;;;;;4.57;4.27;;;26.50;44.70;;;;;;4953099;29;20457;-76
2023/05/08 08:56:50;;;;;;;4.60;4.30;;;26.70;44.60;;;;;;4955119;29;20462;-78
2023/05/08 08:59:18;;;;;;;4.00;3.80;;;27.00;44.40;;;;;;4955230;29;20427;-77
2023/05/08 09:01:48;;;;;;;5.30;4.90;;;27.10;44.00;;;;;;4952862;28;20513;-78
2023/05/08 09:04:16;;;;;;;4.37;4.10;;;27.20;43.90;;;;;;4957117;28;20463;-76
2023/05/08 09:06:45;;;;;;;5.00;4.60;;;27.30;43.70;;;;;;4955128;29;20417;-77
2023/05/08 09:09:15;;;;;;;4.47;3.93;;;27.40;43.70;;;;;;4955757;29;20542;-76
2023/05/08 09:11:43;;;;;;;4.30;4.00;;;27.60;43.70;;;;;;4954756;28;20421;-77
2023/05/08 09:14:11;;;;;;;6.47;3.63;;;27.60;43.60;;;;;;4962331;28;20443;-76
2023/05/08 09:16:39;;;;;;;4.10;3.90;;;27.80;43.60;;;;;;4954838;28;20422;-76
2023/05/08 09:19:08;;;;;;;4.60;4.20;;;27.80;43.50;;;;;;4955654;28;20454;-77
2023/05/08 09:21:36;;;;;;;4.40;4.00;;;28.00;43.60;;;;;;4954297;28;21048;-76
2023/05/08 09:24:05;;;;;;;4.00;3.63;;;28.10;43.50;;;;;;4955151;28;20505;-76
2023/05/08 09:26:36;;;;;;;3.77;3.43;;;28.20;43.40;;;;;;4953268;28;20516;-77
2023/05/08 09:29:14;;;;;;;4.00;3.80;;;28.40;43.40;;;;;;4954347;28;20481;-76
2023/05/08 09:31:43;;;;;;;4.00;3.70;;;28.60;43.10;;;;;;4954582;28;20490;-76
2023/05/08 09:34:11;;;;;;;4.10;3.80;;;28.70;43.00;;;;;;4954471;28;20506;-76
2023/05/08 09:36:40;;;;;;;4.00;3.80;;;28.90;42.90;;;;;;4957211;28;20463;-76
2023/05/08 09:39:11;;;;;;;3.70;3.50;;;29.10;42.80;;;;;;4953786;28;20509;-76
2023/05/08 09:41:42;;;;;;;3.90;3.70;;;29.30;42.70;;;;;;4953709;28;20422;-77
2023/05/08 09:44:10;;;;;;;3.93;3.73;;;29.40;42.60;;;;;;4954120;28;20432;-76
2023/05/08 09:46:38;;;;;;;11.07;3.60;;;29.60;42.50;;;;;;4962069;28;20428;-77
2023/05/08 09:49:06;;;;;;;3.80;3.60;;;29.80;42.40;;;;;;4953438;28;20475;-76
2023/05/08 09:51:34;;;;;;;3.50;3.40;;;30.00;42.20;;;;;;4951553;28;20461;-76
2023/05/08 09:54:04;;;;;;;3.77;3.57;;;30.10;42.00;;;;;;4951405;28;20447;-76
2023/05/08 09:56:34;;;;;;;3.50;3.30;;;30.30;41.90;;;;;;4954066;28;20447;-76
2023/05/08 09:59:05;;;;;;;4.33;3.57;;;30.50;41.80;;;;;;4954947;28;20452;-75
2023/05/08 10:01:33;;;;;;;3.67;3.47;;;30.70;41.70;;;;;;4951752;29;20498;-76
2023/05/08 10:04:01;;;;;;;3.50;3.40;;;30.90;41.60;;;;;;4946414;29;20498;-76
2023/05/08 10:06:29;;;;;;;3.53;3.43;;;31.00;41.40;;;;;;4954666;28;20453;-77
2023/05/08 10:09:11;;;;;;;3.83;3.53;;;31.20;41.30;;;;;;4954844;28;20480;-76
2023/05/08 10:11:39;;;;;;;3.33;3.23;;;31.40;41.20;;;;;;4953929;28;20447;-77
2023/05/08 10:14:08;;;;;;;3.50;3.30;;;31.60;41.10;;;;;;4953259;28;20453;-76
2023/05/08 10:16:40;;;;;;;3.20;3.10;;;31.80;40.90;;;;;;4953104;28;20514;-77
2023/05/08 10:19:12;;;;;;;3.33;3.10;;;31.90;40.70;;;;;;4961131;28;20464;-76
2023/05/08 10:21:42;;;;;;;3.40;3.30;;;32.20;40.50;;;;;;4950935;28;20455;-77
2023/05/08 10:24:14;;;;;;;3.40;3.20;;;32.30;40.40;;;;;;4953121;28;20881;-76
2023/05/08 10:26:44;;;;;;;3.53;3.33;;;32.50;40.20;;;;;;4953994;28;20455;-76
2023/05/08 10:29:33;;;;;;;3.00;2.90;;;32.70;40.10;;;;;;4953799;28;20479;-76
2023/05/08 10:32:01;;;;;;;3.13;3.03;;;32.90;39.90;;;;;;4953045;28;20562;-76
2023/05/08 10:34:29;;;;;;;3.70;3.43;;;33.10;39.70;;;;;;4953484;29;20447;-76
2023/05/08 10:36:57;;;;;;;2.90;2.80;;;33.30;39.60;;;;;;4954041;28;20455;-76
2023/05/08 10:39:25;;;;;;;3.50;3.40;;;33.40;39.50;;;;;;4953843;29;20458;-78
2023/05/08 10:41:53;;;;;;;2.70;2.60;;;33.60;39.30;;;;;;4951710;28;20481;-76
2023/05/08 10:44:21;;;;;;;3.10;3.00;;;33.80;39.10;;;;;;4953761;29;20447;-77
2023/05/08 10:46:53;;;;;;;2.93;2.70;;;34.00;38.90;;;;;;4953590;28;20514;-77
2023/05/08 10:49:25;;;;;;;3.20;3.00;;;34.10;38.70;;;;;;4953817;28;20467;-77
2023/05/08 10:52:01;;;;;;;3.27;3.17;;;34.30;38.60;;;;;;4960398;28;20475;-78
2023/05/08 10:54:34;;;;;;;2.90;2.80;;;34.50;38.40;;;;;;4953270;28;20451;-77
2023/05/08 10:57:09;;;;;;;3.50;3.30;;;34.70;38.20;;;;;;4952061;28;20451;-77
2023/05/08 10:59:38;;;;;;;3.00;2.90;;;35.00;38.10;;;;;;4954232;28;20446;-76
2023/05/08 11:02:07;;;;;;;3.03;2.70;;;35.10;38.00;;;;;;4948973;28;20862;-77
2023/05/08 11:04:36;;;;;;;3.00;2.80;;;35.30;37.80;;;;;;4956528;28;20454;-77
2023/05/08 11:07:04;;;;;;;2.80;2.70;;;35.40;37.40;;;;;;4945930;29;20459;-77
2023/05/08 11:09:45;;;;;;;2.93;2.80;;;35.60;37.40;;;;;;4953174;28;20478;-77
2023/05/08 11:12:21;;;;;;;2.73;2.60;;;35.80;37.20;;;;;;4951548;28;20474;-77
2023/05/08 11:14:55;;;;;;;2.77;2.67;;;36.50;36.70;;;;;;4952922;28;20453;-77
2023/05/08 11:17:25;;;;;;;2.80;2.70;;;37.90;35.70;;;;;;4952322;28;20450;-77
2023/05/08 11:19:57;;;;;;;2.67;2.57;;;39.10;33.70;;;;;;4953594;28;20459;-78
2023/05/08 11:22:29;;;;;;;4.70;2.20;;;40.40;32.30;;;;;;4953389;28;20481;-76
2023/05/08 11:24:59;;;;;;;2.17;2.07;;;41.50;31.00;;;;;;4952295;28;20450;-76
2023/05/08 11:27:32;;;;;;;1.87;1.87;;;42.40;30.00;;;;;;4952937;29;20453;-77
2023/05/08 11:30:19;;;;;;;1.80;1.70;;;43.10;29.10;;;;;;4952484;28;20509;-77
2023/05/08 11:33:13;;;;;;;2.03;1.93;;;43.90;28.60;;;;;;4952733;29;20459;-76
2023/05/08 11:35:42;;;;;;;1.60;1.60;;;44.70;27.90;;;;;;4949026;28;20461;-77
2023/05/08 11:38:30;;;;;;;1.67;1.67;;;45.20;27.20;;;;;;4952449;28;20458;-77
2023/05/08 11:40:59;;;;;;;1.87;1.50;;;45.90;26.70;;;;;;4952299;28;20453;-78
2023/05/08 11:43:35;;;;;;;1.40;1.40;;;46.10;26.40;;;;;;4952844;28;20477;-77
2023/05/08 11:46:04;;;;;;;1.30;1.30;;;46.50;26.10;;;;;;4952885;28;20461;-78
2023/05/08 11:48:34;;;;;;;1.30;1.30;;;46.80;25.80;;;;;;4953826;28;20450;-77
2023/05/08 11:51:03;;;;;;;1.38;1.38;;;46.90;25.70;;;;;;4954713;28;20208;-77
2023/05/08 11:53:31;;;;;;;1.30;1.30;;;47.00;25.50;;;;;;4952517;28;20247;-78
2023/05/08 11:55:59;;;;;;;2.15;1.40;;;47.40;25.40;;;;;;4951638;29;20216;-78
2023/05/08 11:58:27;;;;;;;1.40;1.30;;;47.40;25.40;;;;;;4953146;28;20557;-78
2023/05/08 12:00:56;;;;;;;1.50;1.50;;;47.80;25.00;;;;;;4952502;28;20212;-77
2023/05/08 12:03:24;;;;;;;1.20;1.20;;;47.90;24.80;;;;;;4952863;28;20216;-78
2023/05/08 12:05:56;;;;;;;1.35;1.35;;;48.10;24.70;;;;;;4952394;28;20228;-77
2023/05/08 12:08:24;;;;;;;1.60;1.60;;;48.20;24.50;;;;;;4952178;28;20196;-78
2023/05/08 12:10:53;;;;;;;1.52;1.52;;;48.40;24.50;;;;;;4952112;29;20292;-77
2023/05/08 12:13:22;;;;;;;1.50;1.40;;;48.40;24.20;;;;;;4945488;28;20226;-77
2023/05/08 12:15:52;;;;;;;3.58;1.35;;;48.70;23.90;;;;;;4955663;28;20228;-77
2023/05/08 12:18:20;;;;;;;1.40;1.40;;;48.70;23.90;;;;;;4955880;28;20215;-77
2023/05/08 12:20:51;;;;;;;1.33;1.33;;;48.80;23.90;;;;;;4952117;29;20212;-77
2023/05/08 12:23:20;;;;;;;1.50;1.50;;;48.90;23.90;;;;;;4956433;28;20228;-77
2023/05/08 12:25:52;;;;;;;1.40;1.40;;;48.80;23.80;;;;;;4955533;28;20200;-76
2023/05/08 12:28:22;;;;;;;1.50;1.50;;;48.90;23.80;;;;;;4955207;28;20201;-76
2023/05/08 12:30:50;;;;;;;1.60;1.50;;;48.80;23.70;;;;;;4955133;28;20201;-76
2023/05/08 12:33:18;;;;;;;1.67;1.58;;;48.80;23.80;;;;;;4955828;28;20307;-77
2023/05/08 12:35:46;;;;;;;1.50;1.50;;;48.70;23.70;;;;;;4955482;28;20212;-76
2023/05/08 12:38:14;;;;;;;1.80;1.70;;;48.70;23.70;;;;;;4955732;28;20208;-78
2023/05/08 12:40:44;;;;;;;1.95;1.65;;;48.60;23.70;;;;;;4954532;28;20227;-76
2023/05/08 12:43:12;;;;;;;1.45;1.45;;;48.40;23.80;;;;;;4958941;28;20230;-77
2023/05/08 12:45:41;;;;;;;1.80;1.80;;;48.30;23.90;;;;;;4958139;28;20204;-77
2023/05/08 12:48:11;;;;;;;1.98;1.88;;;48.10;24.00;;;;;;4955901;28;20205;-76
2023/05/08 12:50:39;;;;;;;1.88;1.88;;;48.10;24.20;;;;;;4955471;28;20205;-78
2023/05/08 12:53:08;;;;;;;1.73;1.63;;;47.90;24.10;;;;;;4955005;28;20220;-77
2023/05/08 12:55:38;;;;;;;1.90;1.90;;;47.80;24.40;;;;;;4951282;28;20450;-77